sensor_id;sensor_type;location;lat;lon;timestamp;P1;durP1;ratioP1;P2;durP2;ratioP2
325;SDS011;150;52.352;14.058;2023-07-20T00:22:53;3.40;;;2.50;;
325;SDS011;150;52.352;14.058;2023-07-20T00:25:22;2.58;;;2.40;;
325;SDS011;150;52.352;14.058;2023-07-20T00:40:17;4.10;;;2.80;;
325;SDS011;150;52.352;14.058;2023-07-20T00:45:35;3.42;;;2.80;;
325;SDS011;150;52.352;14.058;2023-07-20T00:48:22;5.18;;;3.00;;
325;SDS011;150;52.352;14.058;2023-07-20T00:50:59;4.80;;;2.80;;
325;SDS011;150;52.352;14.058;2023-07-20T00:53:35;3.08;;;2.90;;
325;SDS011;150;52.352;14.058;2023-07-20T00:56:08;3.75;;;3.30;;
325;SDS011;150;52.352;14.058;2023-07-20T00:58:35;3.20;;;2.72;;
325;SDS011;150;52.352;14.058;2023-07-20T01:01:05;4.70;;;3.00;;
325;SDS011;150;52.352;14.058;2023-07-20T01:03:39;3.70;;;2.83;;
325;SDS011;150;52.352;14.058;2023-07-20T01:06:09;3.15;;;2.83;;
325;SDS011;150;52.352;14.058;2023-07-20T01:08:47;3.83;;;3.05;;
325;SDS011;150;52.352;14.058;2023-07-20T01:11:33;2.78;;;2.60;;
325;SDS011;150;52.352;14.058;2023-07-20T01:14:26;3.47;;;2.97;;
325;SDS011;150;52.352;14.058;2023-07-20T01:16:56;3.50;;;2.90;;
325;SDS011;150;52.352;14.058;2023-07-20T01:19:30;4.75;;;3.15;;
325;SDS011;150;52.352;14.058;2023-07-20T01:22:16;3.00;;;2.25;;
325;SDS011;150;52.352;14.058;2023-07-20T01:25:08;3.35;;;3.25;;
325;SDS011;150;52.352;14.058;2023-07-20T01:28:06;5.15;;;3.47;;
325;SDS011;150;52.352;14.058;2023-07-20T01:34:18;4.75;;;2.85;;
325;SDS011;150;52.352;14.058;2023-07-20T01:40:08;3.20;;;3.00;;
325;SDS011;150;52.352;14.058;2023-07-20T01:42:48;4.40;;;3.50;;
325;SDS011;150;52.352;14.058;2023-07-20T01:45:15;3.88;;;3.67;;
325;SDS011;150;52.352;14.058;2023-07-20T01:48:00;4.05;;;3.70;;
325;SDS011;150;52.352;14.058;2023-07-20T01:50:33;6.60;;;4.65;;
325;SDS011;150;52.352;14.058;2023-07-20T01:53:17;3.80;;;3.42;;
325;SDS011;150;52.352;14.058;2023-07-20T01:55:52;6.30;;;4.28;;
325;SDS011;150;52.352;14.058;2023-07-20T01:58:31;4.72;;;4.40;;
325;SDS011;150;52.352;14.058;2023-07-20T02:01:13;6.72;;;3.70;;
325;SDS011;150;52.352;14.058;2023-07-20T02:04:22;5.50;;;3.83;;
325;SDS011;150;52.352;14.058;2023-07-20T02:06:56;4.43;;;4.13;;
325;SDS011;150;52.352;14.058;2023-07-20T02:09:33;6.78;;;4.90;;
325;SDS011;150;52.352;14.058;2023-07-20T02:12:23;5.65;;;4.95;;
325;SDS011;150;52.352;14.058;2023-07-20T02:15:01;5.65;;;4.65;;
325;SDS011;150;52.352;14.058;2023-07-20T02:17:31;9.00;;;4.50;;
325;SDS011;150;52.352;14.058;2023-07-20T02:20:02;6.28;;;4.93;;
325;SDS011;150;52.352;14.058;2023-07-20T02:22:42;5.30;;;4.53;;
325;SDS011;150;52.352;14.058;2023-07-20T02:25:18;8.18;;;4.72;;
325;SDS011;150;52.352;14.058;2023-07-20T02:27:45;6.80;;;4.53;;
325;SDS011;150;52.352;14.058;2023-07-20T02:30:21;5.55;;;4.50;;
325;SDS011;150;52.352;14.058;2023-07-20T02:32:48;6.80;;;5.33;;
325;SDS011;150;52.352;14.058;2023-07-20T02:35:25;5.03;;;4.67;;
325;SDS011;150;52.352;14.058;2023-07-20T02:37:55;6.22;;;5.25;;
325;SDS011;150;52.352;14.058;2023-07-20T02:40:25;6.38;;;4.82;;
325;SDS011;150;52.352;14.058;2023-07-20T02:43:09;7.05;;;5.38;;
325;SDS011;150;52.352;14.058;2023-07-20T02:45:40;8.07;;;5.45;;
325;SDS011;150;52.352;14.058;2023-07-20T02:48:12;5.32;;;4.60;;
325;SDS011;150;52.352;14.058;2023-07-20T02:54:01;9.32;;;5.93;;
325;SDS011;150;52.352;14.058;2023-07-20T02:56:36;6.78;;;5.47;;
325;SDS011;150;52.352;14.058;2023-07-20T02:59:07;7.18;;;5.43;;
325;SDS011;150;52.352;14.058;2023-07-20T03:01:50;5.40;;;5.18;;
325;SDS011;150;52.352;14.058;2023-07-20T03:04:25;6.03;;;5.60;;
325;SDS011;150;52.352;14.058;2023-07-20T03:07:06;6.90;;;4.63;;
325;SDS011;150;52.352;14.058;2023-07-20T03:09:47;5.20;;;4.87;;
325;SDS011;150;52.352;14.058;2023-07-20T03:12:19;6.03;;;5.72;;
325;SDS011;150;52.352;14.058;2023-07-20T03:14:55;6.32;;;5.30;;
325;SDS011;150;52.352;14.058;2023-07-20T03:17:23;5.05;;;4.75;;
325;SDS011;150;52.352;14.058;2023-07-20T03:19:52;4.75;;;4.40;;
325;SDS011;150;52.352;14.058;2023-07-20T03:22:33;5.40;;;4.90;;
325;SDS011;150;52.352;14.058;2023-07-20T03:25:02;5.50;;;4.60;;
325;SDS011;150;52.352;14.058;2023-07-20T03:30:41;6.40;;;5.22;;
325;SDS011;150;52.352;14.058;2023-07-20T03:33:10;4.82;;;4.43;;
325;SDS011;150;52.352;14.058;2023-07-20T03:35:54;7.95;;;5.30;;
325;SDS011;150;52.352;14.058;2023-07-20T03:41:31;5.40;;;5.10;;
325;SDS011;150;52.352;14.058;2023-07-20T03:44:06;7.67;;;5.57;;
325;SDS011;150;52.352;14.058;2023-07-20T03:46:42;6.13;;;5.55;;
325;SDS011;150;52.352;14.058;2023-07-20T03:49:36;7.60;;;6.63;;
325;SDS011;150;52.352;14.058;2023-07-20T03:52:03;5.60;;;5.32;;
325;SDS011;150;52.352;14.058;2023-07-20T03:54:46;5.80;;;5.10;;
325;SDS011;150;52.352;14.058;2023-07-20T03:57:31;6.87;;;5.30;;
325;SDS011;150;52.352;14.058;2023-07-20T04:00:09;5.82;;;5.03;;
325;SDS011;150;52.352;14.058;2023-07-20T04:02:52;6.25;;;5.93;;
325;SDS011;150;52.352;14.058;2023-07-20T04:05:30;8.43;;;5.70;;
325;SDS011;150;52.352;14.058;2023-07-20T04:08:10;6.65;;;5.40;;
325;SDS011;150;52.352;14.058;2023-07-20T04:10:51;5.63;;;5.35;;
325;SDS011;150;52.352;14.058;2023-07-20T04:13:22;6.10;;;5.80;;
325;SDS011;150;52.352;14.058;2023-07-20T04:15:52;8.48;;;6.22;;
325;SDS011;150;52.352;14.058;2023-07-20T04:18:24;7.55;;;6.00;;
325;SDS011;150;52.352;14.058;2023-07-20T04:21:03;7.07;;;5.15;;
325;SDS011;150;52.352;14.058;2023-07-20T04:23:47;5.47;;;5.10;;
325;SDS011;150;52.352;14.058;2023-07-20T04:26:29;6.43;;;5.10;;
325;SDS011;150;52.352;14.058;2023-07-20T04:29:10;6.82;;;5.80;;
325;SDS011;150;52.352;14.058;2023-07-20T04:31:42;8.48;;;5.43;;
325;SDS011;150;52.352;14.058;2023-07-20T04:34:22;6.15;;;5.85;;
325;SDS011;150;52.352;14.058;2023-07-20T04:37:03;7.38;;;6.10;;
325;SDS011;150;52.352;14.058;2023-07-20T04:39:50;8.15;;;6.40;;
325;SDS011;150;52.352;14.058;2023-07-20T04:42:32;7.28;;;5.90;;
325;SDS011;150;52.352;14.058;2023-07-20T04:45:07;8.13;;;5.93;;
325;SDS011;150;52.352;14.058;2023-07-20T04:47:35;8.13;;;6.85;;
325;SDS011;150;52.352;14.058;2023-07-20T04:50:02;7.05;;;6.45;;
325;SDS011;150;52.352;14.058;2023-07-20T04:52:35;6.85;;;6.45;;
325;SDS011;150;52.352;14.058;2023-07-20T04:55:07;7.38;;;6.40;;
325;SDS011;150;52.352;14.058;2023-07-20T04:57:41;6.55;;;5.45;;
325;SDS011;150;52.352;14.058;2023-07-20T05:00:20;9.13;;;7.00;;
325;SDS011;150;52.352;14.058;2023-07-20T05:03:13;6.82;;;6.07;;
325;SDS011;150;52.352;14.058;2023-07-20T05:05:40;7.90;;;6.43;;
325;SDS011;150;52.352;14.058;2023-07-20T05:08:10;9.40;;;7.47;;
325;SDS011;150;52.352;14.058;2023-07-20T05:10:48;7.30;;;6.70;;
325;SDS011;150;52.352;14.058;2023-07-20T05:13:19;8.45;;;7.13;;
325;SDS011;150;52.352;14.058;2023-07-20T05:15:50;7.20;;;6.80;;
325;SDS011;150;52.352;14.058;2023-07-20T05:18:20;8.05;;;6.60;;
325;SDS011;150;52.352;14.058;2023-07-20T05:21:02;7.65;;;7.25;;
325;SDS011;150;52.352;14.058;2023-07-20T05:23:32;8.00;;;6.70;;
325;SDS011;150;52.352;14.058;2023-07-20T05:26:13;7.38;;;6.75;;
325;SDS011;150;52.352;14.058;2023-07-20T05:29:17;8.02;;;6.93;;
325;SDS011;150;52.352;14.058;2023-07-20T05:31:57;8.80;;;6.60;;
325;SDS011;150;52.352;14.058;2023-07-20T05:34:32;6.20;;;5.80;;
325;SDS011;150;52.352;14.058;2023-07-20T05:37:14;7.05;;;6.47;;
325;SDS011;150;52.352;14.058;2023-07-20T05:39:46;11.18;;;7.00;;
325;SDS011;150;52.352;14.058;2023-07-20T05:42:13;9.32;;;7.07;;
325;SDS011;150;52.352;14.058;2023-07-20T05:44:56;7.40;;;6.22;;
325;SDS011;150;52.352;14.058;2023-07-20T05:47:33;7.00;;;6.60;;
325;SDS011;150;52.352;14.058;2023-07-20T05:50:00;8.30;;;7.40;;
325;SDS011;150;52.352;14.058;2023-07-20T05:52:27;6.32;;;5.53;;
325;SDS011;150;52.352;14.058;2023-07-20T05:55:05;6.70;;;6.30;;
325;SDS011;150;52.352;14.058;2023-07-20T05:57:33;8.35;;;7.30;;
325;SDS011;150;52.352;14.058;2023-07-20T06:00:09;7.63;;;7.00;;
325;SDS011;150;52.352;14.058;2023-07-20T06:02:52;7.20;;;6.68;;
325;SDS011;150;52.352;14.058;2023-07-20T06:05:42;8.80;;;7.63;;
325;SDS011;150;52.352;14.058;2023-07-20T06:08:14;7.10;;;6.70;;
325;SDS011;150;52.352;14.058;2023-07-20T06:10:49;6.82;;;6.47;;
325;SDS011;150;52.352;14.058;2023-07-20T06:13:25;7.80;;;6.85;;
325;SDS011;150;52.352;14.058;2023-07-20T06:16:08;8.30;;;7.30;;
325;SDS011;150;52.352;14.058;2023-07-20T06:18:51;9.02;;;6.40;;
325;SDS011;150;52.352;14.058;2023-07-20T06:21:28;10.50;;;7.60;;
325;SDS011;150;52.352;14.058;2023-07-20T06:23:57;7.55;;;7.15;;
325;SDS011;150;52.352;14.058;2023-07-20T06:26:30;9.02;;;6.25;;
325;SDS011;150;52.352;14.058;2023-07-20T06:29:13;6.60;;;5.90;;
325;SDS011;150;52.352;14.058;2023-07-20T06:31:44;9.02;;;6.75;;
325;SDS011;150;52.352;14.058;2023-07-20T06:34:28;8.27;;;6.77;;
325;SDS011;150;52.352;14.058;2023-07-20T06:36:58;9.30;;;6.85;;
325;SDS011;150;52.352;14.058;2023-07-20T06:39:31;10.18;;;6.07;;
325;SDS011;150;52.352;14.058;2023-07-20T06:42:00;6.87;;;5.73;;
325;SDS011;150;52.352;14.058;2023-07-20T06:44:30;5.90;;;5.70;;
325;SDS011;150;52.352;14.058;2023-07-20T06:46:58;7.75;;;5.57;;
325;SDS011;150;52.352;14.058;2023-07-20T06:49:27;7.60;;;5.70;;
325;SDS011;150;52.352;14.058;2023-07-20T06:51:54;7.70;;;5.75;;
325;SDS011;150;52.352;14.058;2023-07-20T06:54:21;7.80;;;5.37;;
325;SDS011;150;52.352;14.058;2023-07-20T06:56:50;6.88;;;5.90;;
325;SDS011;150;52.352;14.058;2023-07-20T06:59:17;6.55;;;5.63;;
325;SDS011;150;52.352;14.058;2023-07-20T07:01:44;6.50;;;5.30;;
325;SDS011;150;52.352;14.058;2023-07-20T07:04:17;8.02;;;5.68;;
325;SDS011;150;52.352;14.058;2023-07-20T07:06:43;6.82;;;5.57;;
325;SDS011;150;52.352;14.058;2023-07-20T07:09:15;7.88;;;5.30;;
325;SDS011;150;52.352;14.058;2023-07-20T07:11:51;5.78;;;4.40;;
325;SDS011;150;52.352;14.058;2023-07-20T07:14:20;7.20;;;5.13;;
325;SDS011;150;52.352;14.058;2023-07-20T07:16:53;5.63;;;4.80;;
325;SDS011;150;52.352;14.058;2023-07-20T07:19:32;6.38;;;4.53;;
325;SDS011;150;52.352;14.058;2023-07-20T07:22:01;6.22;;;4.53;;
325;SDS011;150;52.352;14.058;2023-07-20T07:24:33;4.90;;;4.45;;
325;SDS011;150;52.352;14.058;2023-07-20T07:27:10;6.20;;;4.30;;
325;SDS011;150;52.352;14.058;2023-07-20T07:29:44;6.00;;;4.50;;
325;SDS011;150;52.352;14.058;2023-07-20T07:32:14;5.53;;;4.47;;
325;SDS011;150;52.352;14.058;2023-07-20T07:34:52;3.90;;;3.20;;
325;SDS011;150;52.352;14.058;2023-07-20T07:37:26;4.10;;;3.20;;
325;SDS011;150;52.352;14.058;2023-07-20T07:39:57;4.75;;;3.13;;
325;SDS011;150;52.352;14.058;2023-07-20T07:42:24;3.92;;;3.10;;
325;SDS011;150;52.352;14.058;2023-07-20T07:45:02;4.60;;;2.90;;
325;SDS011;150;52.352;14.058;2023-07-20T07:47:42;3.47;;;3.00;;
325;SDS011;150;52.352;14.058;2023-07-20T07:50:12;3.53;;;2.92;;
325;SDS011;150;52.352;14.058;2023-07-20T07:52:45;4.65;;;3.65;;
325;SDS011;150;52.352;14.058;2023-07-20T07:55:34;4.07;;;3.00;;
325;SDS011;150;52.352;14.058;2023-07-20T07:58:08;4.97;;;3.58;;
325;SDS011;150;52.352;14.058;2023-07-20T08:00:44;3.65;;;2.88;;
325;SDS011;150;52.352;14.058;2023-07-20T08:03:19;3.78;;;3.00;;
325;SDS011;150;52.352;14.058;2023-07-20T08:05:50;3.90;;;3.10;;
325;SDS011;150;52.352;14.058;2023-07-20T08:08:25;4.28;;;3.42;;
325;SDS011;150;52.352;14.058;2023-07-20T08:10:52;4.63;;;2.50;;
325;SDS011;150;52.352;14.058;2023-07-20T08:13:29;3.92;;;3.00;;
325;SDS011;150;52.352;14.058;2023-07-20T08:16:05;5.00;;;2.80;;
325;SDS011;150;52.352;14.058;2023-07-20T08:18:52;3.28;;;2.60;;
325;SDS011;150;52.352;14.058;2023-07-20T08:21:20;4.43;;;2.40;;
325;SDS011;150;52.352;14.058;2023-07-20T08:24:02;4.20;;;2.70;;
325;SDS011;150;52.352;14.058;2023-07-20T08:26:58;2.90;;;2.58;;
325;SDS011;150;52.352;14.058;2023-07-20T08:30:22;4.25;;;2.70;;
325;SDS011;150;52.352;14.058;2023-07-20T08:33:24;4.30;;;2.35;;
325;SDS011;150;52.352;14.058;2023-07-20T08:36:11;4.57;;;2.38;;
325;SDS011;150;52.352;14.058;2023-07-20T08:39:19;2.83;;;2.00;;
325;SDS011;150;52.352;14.058;2023-07-20T08:42:07;2.70;;;2.10;;
325;SDS011;150;52.352;14.058;2023-07-20T08:44:47;4.07;;;1.73;;
325;SDS011;150;52.352;14.058;2023-07-20T08:47:16;2.50;;;2.00;;
325;SDS011;150;52.352;14.058;2023-07-20T08:49:43;2.53;;;1.92;;
325;SDS011;150;52.352;14.058;2023-07-20T08:52:10;2.30;;;1.90;;
325;SDS011;150;52.352;14.058;2023-07-20T08:54:41;2.85;;;1.60;;
325;SDS011;150;52.352;14.058;2023-07-20T08:57:08;1.98;;;1.50;;
325;SDS011;150;52.352;14.058;2023-07-20T08:59:39;3.40;;;1.40;;
325;SDS011;150;52.352;14.058;2023-07-20T09:02:06;2.30;;;1.80;;
325;SDS011;150;52.352;14.058;2023-07-20T09:04:34;2.40;;;1.70;;
325;SDS011;150;52.352;14.058;2023-07-20T09:07:05;1.75;;;1.45;;
325;SDS011;150;52.352;14.058;2023-07-20T09:09:48;2.22;;;1.60;;
325;SDS011;150;52.352;14.058;2023-07-20T09:12:33;2.83;;;1.50;;
325;SDS011;150;52.352;14.058;2023-07-20T09:15:16;2.78;;;1.40;;
325;SDS011;150;52.352;14.058;2023-07-20T09:17:56;2.00;;;1.30;;
325;SDS011;150;52.352;14.058;2023-07-20T09:20:44;1.67;;;1.10;;
325;SDS011;150;52.352;14.058;2023-07-20T09:23:27;1.90;;;1.23;;
325;SDS011;150;52.352;14.058;2023-07-20T09:26:22;2.75;;;1.33;;
325;SDS011;150;52.352;14.058;2023-07-20T09:29:05;1.90;;;1.10;;
325;SDS011;150;52.352;14.058;2023-07-20T09:32:11;1.98;;;1.25;;
325;SDS011;150;52.352;14.058;2023-07-20T09:35:13;2.10;;;1.20;;
325;SDS011;150;52.352;14.058;2023-07-20T09:38:01;2.20;;;1.70;;
325;SDS011;150;52.352;14.058;2023-07-20T09:40:41;1.80;;;0.90;;
325;SDS011;150;52.352;14.058;2023-07-20T09:43:34;1.92;;;1.02;;
325;SDS011;150;52.352;14.058;2023-07-20T09:46:23;1.80;;;1.10;;
325;SDS011;150;52.352;14.058;2023-07-20T09:49:07;2.30;;;1.30;;
325;SDS011;150;52.352;14.058;2023-07-20T09:51:45;1.90;;;0.80;;
325;SDS011;150;52.352;14.058;2023-07-20T09:54:28;1.50;;;0.90;;
325;SDS011;150;52.352;14.058;2023-07-20T09:57:27;3.60;;;1.00;;
325;SDS011;150;52.352;14.058;2023-07-20T10:00:08;1.87;;;1.10;;
325;SDS011;150;52.352;14.058;2023-07-20T10:02:56;1.75;;;0.70;;
325;SDS011;150;52.352;14.058;2023-07-20T10:05:52;1.42;;;0.80;;
325;SDS011;150;52.352;14.058;2023-07-20T10:08:28;2.00;;;0.90;;
325;SDS011;150;52.352;14.058;2023-07-20T10:10:57;1.63;;;0.90;;
325;SDS011;150;52.352;14.058;2023-07-20T10:13:38;1.50;;;0.80;;
325;SDS011;150;52.352;14.058;2023-07-20T10:19:02;2.00;;;1.00;;
325;SDS011;150;52.352;14.058;2023-07-20T10:21:47;1.50;;;0.70;;
325;SDS011;150;52.352;14.058;2023-07-20T10:24:22;1.50;;;0.70;;
325;SDS011;150;52.352;14.058;2023-07-20T10:27:29;1.27;;;0.63;;
325;SDS011;150;52.352;14.058;2023-07-20T10:30:15;2.15;;;0.70;;
325;SDS011;150;52.352;14.058;2023-07-20T10:32:51;1.30;;;0.60;;
325;SDS011;150;52.352;14.058;2023-07-20T10:35:22;3.47;;;0.50;;
325;SDS011;150;52.352;14.058;2023-07-20T10:37:53;1.80;;;0.75;;
325;SDS011;150;52.352;14.058;2023-07-20T10:40:30;1.50;;;0.55;;
325;SDS011;150;52.352;14.058;2023-07-20T10:43:29;1.20;;;0.60;;
325;SDS011;150;52.352;14.058;2023-07-20T10:46:11;1.70;;;0.70;;
325;SDS011;150;52.352;14.058;2023-07-20T10:52:16;1.73;;;0.90;;
325;SDS011;150;52.352;14.058;2023-07-20T10:54:59;1.40;;;0.70;;
325;SDS011;150;52.352;14.058;2023-07-20T11:01:02;2.67;;;1.20;;
325;SDS011;150;52.352;14.058;2023-07-20T11:03:41;1.40;;;0.60;;
325;SDS011;150;52.352;14.058;2023-07-20T11:06:34;1.30;;;0.50;;
325;SDS011;150;52.352;14.058;2023-07-20T11:09:33;1.20;;;0.50;;
325;SDS011;150;52.352;14.058;2023-07-20T11:12:35;2.00;;;0.80;;
325;SDS011;150;52.352;14.058;2023-07-20T11:23:01;1.67;;;0.50;;
325;SDS011;150;52.352;14.058;2023-07-20T11:37:37;1.50;;;0.60;;
325;SDS011;150;52.352;14.058;2023-07-20T11:40:24;1.90;;;0.60;;
325;SDS011;150;52.352;14.058;2023-07-20T11:42:53;1.20;;;0.50;;
325;SDS011;150;52.352;14.058;2023-07-20T11:45:20;1.70;;;0.80;;
325;SDS011;150;52.352;14.058;2023-07-20T11:48:25;1.92;;;0.80;;
325;SDS011;150;52.352;14.058;2023-07-20T11:51:00;1.50;;;0.68;;
325;SDS011;150;52.352;14.058;2023-07-20T11:53:55;1.40;;;0.60;;
325;SDS011;150;52.352;14.058;2023-07-20T11:57:00;1.33;;;0.63;;
325;SDS011;150;52.352;14.058;2023-07-20T12:00:00;2.40;;;0.73;;
325;SDS011;150;52.352;14.058;2023-07-20T12:02:55;1.88;;;0.98;;
325;SDS011;150;52.352;14.058;2023-07-20T12:05:40;1.50;;;0.73;;
325;SDS011;150;52.352;14.058;2023-07-20T12:08:30;1.60;;;0.80;;
325;SDS011;150;52.352;14.058;2023-07-20T12:12:08;2.05;;;0.80;;
325;SDS011;150;52.352;14.058;2023-07-20T12:15:32;1.43;;;0.60;;
325;SDS011;150;52.352;14.058;2023-07-20T12:18:05;1.40;;;0.70;;
325;SDS011;150;52.352;14.058;2023-07-20T12:20:58;1.83;;;0.80;;
325;SDS011;150;52.352;14.058;2023-07-20T12:23:26;1.60;;;0.70;;
325;SDS011;150;52.352;14.058;2023-07-20T12:26:01;1.60;;;0.60;;
325;SDS011;150;52.352;14.058;2023-07-20T12:28:32;2.40;;;0.70;;
325;SDS011;150;52.352;14.058;2023-07-20T12:30:59;3.10;;;0.90;;
325;SDS011;150;52.352;14.058;2023-07-20T12:33:26;1.50;;;0.80;;
325;SDS011;150;52.352;14.058;2023-07-20T12:35:55;2.80;;;0.75;;
325;SDS011;150;52.352;14.058;2023-07-20T12:38:24;2.70;;;0.80;;
325;SDS011;150;52.352;14.058;2023-07-20T12:40:52;2.30;;;0.70;;
325;SDS011;150;52.352;14.058;2023-07-20T12:43:20;2.33;;;0.60;;
325;SDS011;150;52.352;14.058;2023-07-20T12:45:51;4.47;;;0.73;;
325;SDS011;150;52.352;14.058;2023-07-20T12:48:19;2.30;;;0.60;;
325;SDS011;150;52.352;14.058;2023-07-20T12:50:46;2.87;;;0.70;;
325;SDS011;150;52.352;14.058;2023-07-20T12:53:13;1.50;;;0.70;;
325;SDS011;150;52.352;14.058;2023-07-20T12:55:49;2.92;;;0.80;;
325;SDS011;150;52.352;14.058;2023-07-20T12:58:16;1.35;;;0.55;;
325;SDS011;150;52.352;14.058;2023-07-20T13:00:43;1.60;;;0.70;;
325;SDS011;150;52.352;14.058;2023-07-20T13:03:12;1.40;;;0.60;;
325;SDS011;150;52.352;14.058;2023-07-20T13:05:39;1.50;;;0.70;;
325;SDS011;150;52.352;14.058;2023-07-20T13:08:07;2.42;;;0.60;;
325;SDS011;150;52.352;14.058;2023-07-20T13:10:34;1.50;;;0.70;;
325;SDS011;150;52.352;14.058;2023-07-20T13:13:01;1.60;;;0.75;;
325;SDS011;150;52.352;14.058;2023-07-20T13:15:32;1.40;;;0.60;;
325;SDS011;150;52.352;14.058;2023-07-20T13:18:06;1.40;;;0.60;;
325;SDS011;150;52.352;14.058;2023-07-20T13:20:35;2.40;;;0.80;;
325;SDS011;150;52.352;14.058;2023-07-20T13:23:03;1.20;;;0.50;;
325;SDS011;150;52.352;14.058;2023-07-20T13:25:30;1.40;;;0.50;;
325;SDS011;150;52.352;14.058;2023-07-20T13:27:58;1.30;;;0.60;;
325;SDS011;150;52.352;14.058;2023-07-20T13:30:25;1.80;;;0.65;;
325;SDS011;150;52.352;14.058;2023-07-20T13:32:54;4.40;;;0.60;;
325;SDS011;150;52.352;14.058;2023-07-20T13:35:21;1.77;;;0.80;;
325;SDS011;150;52.352;14.058;2023-07-20T13:37:52;1.33;;;0.60;;
325;SDS011;150;52.352;14.058;2023-07-20T13:40:19;2.10;;;0.63;;
325;SDS011;150;52.352;14.058;2023-07-20T13:42:47;1.50;;;0.60;;
325;SDS011;150;52.352;14.058;2023-07-20T13:45:15;2.15;;;0.70;;
325;SDS011;150;52.352;14.058;2023-07-20T13:47:42;1.50;;;0.50;;
325;SDS011;150;52.352;14.058;2023-07-20T13:50:10;1.70;;;0.60;;
325;SDS011;150;52.352;14.058;2023-07-20T13:52:36;2.30;;;1.30;;
325;SDS011;150;52.352;14.058;2023-07-20T13:55:05;1.80;;;0.70;;
325;SDS011;150;52.352;14.058;2023-07-20T13:57:33;2.30;;;1.13;;
325;SDS011;150;52.352;14.058;2023-07-20T14:00:03;1.90;;;0.90;;
325;SDS011;150;52.352;14.058;2023-07-20T14:02:33;2.30;;;0.80;;
325;SDS011;150;52.352;14.058;2023-07-20T14:05:02;1.90;;;0.70;;
325;SDS011;150;52.352;14.058;2023-07-20T14:07:32;3.60;;;0.60;;
325;SDS011;150;52.352;14.058;2023-07-20T14:10:05;3.20;;;0.50;;
325;SDS011;150;52.352;14.058;2023-07-20T14:12:36;1.52;;;0.63;;
325;SDS011;150;52.352;14.058;2023-07-20T14:15:06;1.73;;;0.60;;
325;SDS011;150;52.352;14.058;2023-07-20T14:17:37;1.50;;;0.60;;
325;SDS011;150;52.352;14.058;2023-07-20T14:20:05;1.20;;;0.50;;
325;SDS011;150;52.352;14.058;2023-07-20T14:22:33;2.30;;;0.50;;
325;SDS011;150;52.352;14.058;2023-07-20T14:25:04;1.45;;;0.52;;
325;SDS011;150;52.352;14.058;2023-07-20T14:27:34;1.60;;;0.75;;
325;SDS011;150;52.352;14.058;2023-07-20T14:30:04;1.30;;;0.50;;
325;SDS011;150;52.352;14.058;2023-07-20T14:32:36;1.30;;;0.40;;
325;SDS011;150;52.352;14.058;2023-07-20T14:35:06;2.08;;;1.08;;
325;SDS011;150;52.352;14.058;2023-07-20T14:37:35;1.52;;;0.70;;
325;SDS011;150;52.352;14.058;2023-07-20T14:40:02;1.43;;;0.60;;
325;SDS011;150;52.352;14.058;2023-07-20T14:42:41;1.10;;;0.40;;
325;SDS011;150;52.352;14.058;2023-07-20T14:45:09;1.85;;;0.70;;
325;SDS011;150;52.352;14.058;2023-07-20T14:47:44;1.20;;;0.40;;
325;SDS011;150;52.352;14.058;2023-07-20T14:50:24;1.40;;;0.50;;
325;SDS011;150;52.352;14.058;2023-07-20T14:52:59;1.40;;;0.60;;
325;SDS011;150;52.352;14.058;2023-07-20T14:55:54;1.70;;;0.60;;
325;SDS011;150;52.352;14.058;2023-07-20T14:58:29;1.67;;;0.60;;
325;SDS011;150;52.352;14.058;2023-07-20T15:00:57;1.60;;;0.70;;
325;SDS011;150;52.352;14.058;2023-07-20T15:03:26;1.40;;;0.50;;
325;SDS011;150;52.352;14.058;2023-07-20T15:05:53;1.40;;;0.50;;
325;SDS011;150;52.352;14.058;2023-07-20T15:08:20;1.23;;;0.50;;
325;SDS011;150;52.352;14.058;2023-07-20T15:10:48;3.00;;;1.90;;
325;SDS011;150;52.352;14.058;2023-07-20T15:13:16;1.40;;;0.60;;
325;SDS011;150;52.352;14.058;2023-07-20T15:15:46;1.40;;;0.67;;
325;SDS011;150;52.352;14.058;2023-07-20T15:18:19;1.50;;;0.70;;
325;SDS011;150;52.352;14.058;2023-07-20T15:20:46;1.87;;;0.53;;
325;SDS011;150;52.352;14.058;2023-07-20T15:23:18;1.50;;;0.60;;
325;SDS011;150;52.352;14.058;2023-07-20T15:25:45;1.80;;;0.60;;
325;SDS011;150;52.352;14.058;2023-07-20T15:28:12;1.55;;;0.63;;
325;SDS011;150;52.352;14.058;2023-07-20T15:30:41;1.70;;;0.60;;
325;SDS011;150;52.352;14.058;2023-07-20T15:33:08;1.50;;;0.60;;
325;SDS011;150;52.352;14.058;2023-07-20T15:35:35;2.50;;;0.60;;
325;SDS011;150;52.352;14.058;2023-07-20T15:38:09;2.05;;;0.65;;
325;SDS011;150;52.352;14.058;2023-07-20T15:40:36;3.00;;;2.25;;
325;SDS011;150;52.352;14.058;2023-07-20T15:43:03;1.40;;;0.60;;
325;SDS011;150;52.352;14.058;2023-07-20T15:45:30;2.20;;;0.50;;
325;SDS011;150;52.352;14.058;2023-07-20T15:47:59;1.40;;;0.50;;
325;SDS011;150;52.352;14.058;2023-07-20T15:50:26;1.50;;;0.70;;
325;SDS011;150;52.352;14.058;2023-07-20T15:52:54;2.10;;;0.60;;
325;SDS011;150;52.352;14.058;2023-07-20T15:55:21;2.60;;;0.70;;
325;SDS011;150;52.352;14.058;2023-07-20T15:57:49;1.30;;;0.50;;
325;SDS011;150;52.352;14.058;2023-07-20T16:00:16;1.50;;;0.80;;
325;SDS011;150;52.352;14.058;2023-07-20T16:02:44;1.40;;;0.50;;
325;SDS011;150;52.352;14.058;2023-07-20T16:05:13;1.52;;;0.70;;
325;SDS011;150;52.352;14.058;2023-07-20T16:07:45;1.70;;;0.50;;
325;SDS011;150;52.352;14.058;2023-07-20T16:10:13;1.60;;;0.70;;
325;SDS011;150;52.352;14.058;2023-07-20T16:12:40;1.27;;;0.50;;
325;SDS011;150;52.352;14.058;2023-07-20T16:15:09;1.60;;;0.60;;
325;SDS011;150;52.352;14.058;2023-07-20T16:17:40;1.25;;;0.50;;
325;SDS011;150;52.352;14.058;2023-07-20T16:20:08;1.30;;;0.60;;
325;SDS011;150;52.352;14.058;2023-07-20T16:22:39;1.60;;;0.70;;
325;SDS011;150;52.352;14.058;2023-07-20T16:25:16;2.20;;;0.53;;
325;SDS011;150;52.352;14.058;2023-07-20T16:27:47;1.80;;;0.80;;
325;SDS011;150;52.352;14.058;2023-07-20T16:30:14;1.52;;;0.70;;
325;SDS011;150;52.352;14.058;2023-07-20T16:32:44;2.25;;;0.60;;
325;SDS011;150;52.352;14.058;2023-07-20T16:35:11;2.58;;;1.15;;
325;SDS011;150;52.352;14.058;2023-07-20T16:37:43;1.48;;;0.60;;
325;SDS011;150;52.352;14.058;2023-07-20T16:40:11;1.60;;;0.80;;
325;SDS011;150;52.352;14.058;2023-07-20T16:42:40;1.42;;;0.52;;
325;SDS011;150;52.352;14.058;2023-07-20T16:45:08;1.67;;;0.70;;
325;SDS011;150;52.352;14.058;2023-07-20T16:47:35;2.10;;;1.20;;
325;SDS011;150;52.352;14.058;2023-07-20T16:50:07;2.65;;;1.05;;
325;SDS011;150;52.352;14.058;2023-07-20T16:52:36;2.35;;;0.77;;
325;SDS011;150;52.352;14.058;2023-07-20T16:55:05;1.52;;;0.60;;
325;SDS011;150;52.352;14.058;2023-07-20T16:57:33;1.60;;;0.70;;
325;SDS011;150;52.352;14.058;2023-07-20T17:00:00;3.78;;;0.60;;
325;SDS011;150;52.352;14.058;2023-07-20T17:02:32;1.40;;;0.70;;
325;SDS011;150;52.352;14.058;2023-07-20T17:04:59;1.50;;;0.70;;
325;SDS011;150;52.352;14.058;2023-07-20T17:07:26;2.10;;;0.90;;
325;SDS011;150;52.352;14.058;2023-07-20T17:09:54;1.85;;;0.90;;
325;SDS011;150;52.352;14.058;2023-07-20T17:12:22;1.40;;;0.60;;
325;SDS011;150;52.352;14.058;2023-07-20T17:14:50;2.00;;;1.20;;
325;SDS011;150;52.352;14.058;2023-07-20T17:17:17;2.88;;;0.93;;
325;SDS011;150;52.352;14.058;2023-07-20T17:19:46;1.75;;;0.68;;
325;SDS011;150;52.352;14.058;2023-07-20T17:22:13;1.30;;;0.50;;
325;SDS011;150;52.352;14.058;2023-07-20T17:24:44;1.50;;;0.60;;
325;SDS011;150;52.352;14.058;2023-07-20T17:27:15;1.60;;;0.60;;
325;SDS011;150;52.352;14.058;2023-07-20T17:29:44;1.50;;;0.60;;
325;SDS011;150;52.352;14.058;2023-07-20T17:32:11;2.93;;;0.80;;
325;SDS011;150;52.352;14.058;2023-07-20T17:34:37;1.70;;;0.63;;
325;SDS011;150;52.352;14.058;2023-07-20T17:37:07;2.10;;;0.70;;
325;SDS011;150;52.352;14.058;2023-07-20T17:39:34;4.90;;;0.60;;
325;SDS011;150;52.352;14.058;2023-07-20T17:42:01;2.25;;;0.70;;
325;SDS011;150;52.352;14.058;2023-07-20T17:44:28;2.57;;;0.60;;